sensor_id;sensor_type;location;lat;lon;timestamp;pressure;altitude;pressure_sealevel;temperature;humidity
70445;BME280;57902;49.638;11.070;2022-08-21T00:01:47;98329.88;;;16.07;100.00
70445;BME280;57902;49.638;11.070;2022-08-21T00:04:14;98331.66;;;16.06;100.00
70445;BME280;57902;49.638;11.070;2022-08-21T00:06:48;98339.59;;;16.03;100.00
70445;BME280;57902;49.638;11.070;2022-08-21T00:09:15;98338.91;;;16.00;100.00
70445;BME280;57902;49.638;11.070;2022-08-21T00:11:43;98337.28;;;15.97;100.00
70445;BME280;57902;49.638;11.070;2022-08-21T00:14:10;98335.72;;;15.95;100.00
70445;BME280;57902;49.638;11.070;2022-08-21T00:16:38;98340.06;;;15.94;100.00
70445;BME280;57902;49.638;11.070;2022-08-21T00:19:06;98342.56;;;15.96;100.00
70445;BME280;57902;49.638;11.070;2022-08-21T00:21:34;98343.50;;;15.95;100.00
70445;BME280;57902;49.638;11.070;2022-08-21T00:24:01;98340.13;;;15.92;100.00
70445;BME280;57902;49.638;11.070;2022-08-21T00:26:27;98341.00;;;15.93;100.00
70445;BME280;57902;49.638;11.070;2022-08-21T00:28:54;98329.81;;;15.91;100.00
70445;BME280;57902;49.638;11.070;2022-08-21T00:31:21;98337.69;;;15.89;100.00
70445;BME280;57902;49.638;11.070;2022-08-21T00:33:47;98342.22;;;15.86;100.00
70445;BME280;57902;49.638;11.070;2022-08-21T00:36:14;98333.63;;;15.84;100.00
70445;BME280;57902;49.638;11.070;2022-08-21T00:38:41;98329.47;;;15.81;100.00
70445;BME280;57902;49.638;11.070;2022-08-21T00:41:09;98327.03;;;15.77;100.00
70445;BME280;57902;49.638;11.070;2022-08-21T00:43:56;98318.63;;;15.71;100.00
70445;BME280;57902;49.638;11.070;2022-08-21T00:46:22;98317.03;;;15.69;100.00
70445;BME280;57902;49.638;11.070;2022-08-21T00:48:54;98321.31;;;15.70;100.00
70445;BME280;57902;49.638;11.070;2022-08-21T00:51:35;98322.06;;;15.72;100.00
70445;BME280;57902;49.638;11.070;2022-08-21T00:54:05;98322.84;;;15.74;100.00
70445;BME280;57902;49.638;11.070;2022-08-21T00:56:45;98320.34;;;15.72;100.00
70445;BME280;57902;49.638;11.070;2022-08-21T00:59:13;98322.94;;;15.72;100.00
70445;BME280;57902;49.638;11.070;2022-08-21T01:01:41;98327.34;;;15.70;100.00
70445;BME280;57902;49.638;11.070;2022-08-21T01:04:07;98334.06;;;15.74;100.00
70445;BME280;57902;49.638;11.070;2022-08-21T01:06:34;98331.56;;;15.73;100.00
70445;BME280;57902;49.638;11.070;2022-08-21T01:09:02;98327.41;;;15.69;100.00
70445;BME280;57902;49.638;11.070;2022-08-21T01:11:28;98332.53;;;15.70;100.00
70445;BME280;57902;49.638;11.070;2022-08-21T01:13:55;98323.91;;;15.70;100.00
70445;BME280;57902;49.638;11.070;2022-08-21T01:16:22;98326.66;;;15.67;100.00
70445;BME280;57902;49.638;11.070;2022-08-21T01:18:50;98329.19;;;15.68;100.00
70445;BME280;57902;49.638;11.070;2022-08-21T01:21:18;98314.75;;;15.63;100.00
70445;BME280;57902;49.638;11.070;2022-08-21T01:23:47;98322.78;;;15.58;100.00
70445;BME280;57902;49.638;11.070;2022-08-21T01:26:16;98315.22;;;15.53;100.00
70445;BME280;57902;49.638;11.070;2022-08-21T01:29:11;98322.44;;;15.47;100.00
70445;BME280;57902;49.638;11.070;2022-08-21T01:31:39;98320.69;;;15.47;100.00
70445;BME280;57902;49.638;11.070;2022-08-21T01:34:07;98313.19;;;15.41;100.00
70445;BME280;57902;49.638;11.070;2022-08-21T01:36:34;98317.78;;;15.36;100.00
70445;BME280;57902;49.638;11.070;2022-08-21T01:39:03;98312.88;;;15.30;100.00
70445;BME280;57902;49.638;11.070;2022-08-21T01:41:30;98310.50;;;15.25;100.00
70445;BME280;57902;49.638;11.070;2022-08-21T01:43:57;98317.53;;;15.23;100.00
70445;BME280;57902;49.638;11.070;2022-08-21T01:46:23;98307.00;;;15.26;100.00
70445;BME280;57902;49.638;11.070;2022-08-21T01:48:50;98314.72;;;15.28;100.00
70445;BME280;57902;49.638;11.070;2022-08-21T01:51:17;98307.66;;;15.30;100.00
70445;BME280;57902;49.638;11.070;2022-08-21T01:53:43;98304.09;;;15.32;100.00
70445;BME280;57902;49.638;11.070;2022-08-21T01:56:14;98298.81;;;15.34;100.00
70445;BME280;57902;49.638;11.070;2022-08-21T01:58:43;98303.94;;;15.35;100.00
70445;BME280;57902;49.638;11.070;2022-08-21T02:01:10;98307.31;;;15.37;100.00
70445;BME280;57902;49.638;11.070;2022-08-21T02:03:37;98303.72;;;15.40;100.00
70445;BME280;57902;49.638;11.070;2022-08-21T02:06:05;98307.91;;;15.43;100.00
70445;BME280;57902;49.638;11.070;2022-08-21T02:08:33;98307.00;;;15.44;100.00
70445;BME280;57902;49.638;11.070;2022-08-21T02:11:00;98304.09;;;15.50;100.00
70445;BME280;57902;49.638;11.070;2022-08-21T02:13:26;98298.91;;;15.50;100.00
70445;BME280;57902;49.638;11.070;2022-08-21T02:15:53;98297.94;;;15.52;100.00
70445;BME280;57902;49.638;11.070;2022-08-21T02:18:19;98294.41;;;15.53;100.00
70445;BME280;57902;49.638;11.070;2022-08-21T02:20:48;98294.41;;;15.53;100.00
70445;BME280;57902;49.638;11.070;2022-08-21T02:23:23;98297.94;;;15.52;100.00
70445;BME280;57902;49.638;11.070;2022-08-21T02:26:03;98298.59;;;15.56;100.00
70445;BME280;57902;49.638;11.070;2022-08-21T02:28:30;98302.13;;;15.55;100.00
70445;BME280;57902;49.638;11.070;2022-08-21T02:30:57;98309.06;;;15.54;100.00
70445;BME280;57902;49.638;11.070;2022-08-21T02:33:24;98302.88;;;15.57;100.00
70445;BME280;57902;49.638;11.070;2022-08-21T02:35:52;98305.56;;;15.55;100.00
70445;BME280;57902;49.638;11.070;2022-08-21T02:38:23;98302.06;;;15.56;100.00
70445;BME280;57902;49.638;11.070;2022-08-21T02:40:51;98316.88;;;15.54;100.00
70445;BME280;57902;49.638;11.070;2022-08-21T02:43:20;98304.66;;;15.56;100.00
70445;BME280;57902;49.638;11.070;2022-08-21T02:45:48;98306.47;;;15.54;100.00
70445;BME280;57902;49.638;11.070;2022-08-21T02:48:18;98311.50;;;15.57;100.00
70445;BME280;57902;49.638;11.070;2022-08-21T02:50:50;98316.88;;;15.54;100.00
70445;BME280;57902;49.638;11.070;2022-08-21T02:53:17;98315.06;;;15.56;100.00
70445;BME280;57902;49.638;11.070;2022-08-21T02:55:46;98314.34;;;15.53;100.00
70445;BME280;57902;49.638;11.070;2022-08-21T02:58:18;98310.22;;;15.49;100.00
70445;BME280;57902;49.638;11.070;2022-08-21T03:00:45;98313.81;;;15.46;100.00
70445;BME280;57902;49.638;11.070;2022-08-21T03:03:12;98301.00;;;15.43;100.00
70445;BME280;57902;49.638;11.070;2022-08-21T03:05:41;98305.31;;;15.43;100.00
70445;BME280;57902;49.638;11.070;2022-08-21T03:08:09;98301.75;;;15.45;100.00
70445;BME280;57902;49.638;11.070;2022-08-21T03:10:43;98301.59;;;15.48;100.00
70445;BME280;57902;49.638;11.070;2022-08-21T03:13:10;98304.66;;;15.56;100.00
70445;BME280;57902;49.638;11.070;2022-08-21T03:15:37;98302.97;;;15.55;100.00
70445;BME280;57902;49.638;11.070;2022-08-21T03:18:04;98309.84;;;15.56;100.00
70445;BME280;57902;49.638;11.070;2022-08-21T03:20:31;98307.41;;;15.53;100.00
70445;BME280;57902;49.638;11.070;2022-08-21T03:22:59;98310.91;;;15.52;100.00
70445;BME280;57902;49.638;11.070;2022-08-21T03:25:28;98311.81;;;15.51;100.00
70445;BME280;57902;49.638;11.070;2022-08-21T03:28:11;98314.19;;;15.56;100.00
70445;BME280;57902;49.638;11.070;2022-08-21T03:30:44;98312.38;;;15.58;100.00
70445;BME280;57902;49.638;11.070;2022-08-21T03:33:13;98320.84;;;15.62;100.00
70445;BME280;57902;49.638;11.070;2022-08-21T03:35:43;98320.25;;;15.56;100.00
70445;BME280;57902;49.638;11.070;2022-08-21T03:38:10;98317.50;;;15.60;100.00
70445;BME280;57902;49.638;11.070;2022-08-21T03:40:39;98315.88;;;15.57;100.00
70445;BME280;57902;49.638;11.070;2022-08-21T03:43:06;98320.16;;;15.58;100.00
70445;BME280;57902;49.638;11.070;2022-08-21T03:45:35;98319.47;;;15.54;100.00
70445;BME280;57902;49.638;11.070;2022-08-21T03:48:03;98323.81;;;15.54;100.00
70445;BME280;57902;49.638;11.070;2022-08-21T03:50:34;98323.97;;;15.51;100.00
70445;BME280;57902;49.638;11.070;2022-08-21T03:53:07;98324.97;;;15.48;100.00
70445;BME280;57902;49.638;11.070;2022-08-21T03:55:42;98327.56;;;15.48;100.00
70445;BME280;57902;49.638;11.070;2022-08-21T03:58:09;98321.78;;;15.43;100.00
70445;BME280;57902;49.638;11.070;2022-08-21T04:00:43;98315.78;;;15.41;100.00
70445;BME280;57902;49.638;11.070;2022-08-21T04:03:11;98317.72;;;15.37;100.00
70445;BME280;57902;49.638;11.070;2022-08-21T04:05:37;98317.47;;;15.42;100.00
70445;BME280;57902;49.638;11.070;2022-08-21T04:08:05;98324.56;;;15.38;100.00
70445;BME280;57902;49.638;11.070;2022-08-21T04:10:34;98323.13;;;15.33;100.00
70445;BME280;57902;49.638;11.070;2022-08-21T04:13:02;98319.81;;;15.29;100.00
70445;BME280;57902;49.638;11.070;2022-08-21T04:15:30;98330.13;;;15.31;100.00
70445;BME280;57902;49.638;11.070;2022-08-21T04:17:56;98329.16;;;15.33;100.00
70445;BME280;57902;49.638;11.070;2022-08-21T04:20:23;98337.31;;;15.26;100.00
70445;BME280;57902;49.638;11.070;2022-08-21T04:22:50;98336.75;;;15.19;100.00
70445;BME280;57902;49.638;11.070;2022-08-21T04:25:20;98343.88;;;15.15;100.00
70445;BME280;57902;49.638;11.070;2022-08-21T04:27:48;98341.13;;;15.18;100.00
70445;BME280;57902;49.638;11.070;2022-08-21T04:30:15;98347.91;;;15.21;100.00
70445;BME280;57902;49.638;11.070;2022-08-21T04:32:47;98347.06;;;15.20;100.00
70445;BME280;57902;49.638;11.070;2022-08-21T04:35:16;98354.88;;;15.20;100.00
70445;BME280;57902;49.638;11.070;2022-08-21T04:37:43;98350.66;;;15.18;100.00
70445;BME280;57902;49.638;11.070;2022-08-21T04:40:11;98350.50;;;15.21;100.00
70445;BME280;57902;49.638;11.070;2022-08-21T04:42:48;98348.91;;;15.18;100.00
70445;BME280;57902;49.638;11.070;2022-08-21T04:45:24;98356.56;;;15.21;100.00
70445;BME280;57902;49.638;11.070;2022-08-21T04:47:53;98357.94;;;15.29;100.00
70445;BME280;57902;49.638;11.070;2022-08-21T04:53:18;98364.19;;;15.25;100.00
70445;BME280;57902;49.638;11.070;2022-08-21T04:55:45;98375.50;;;15.23;100.00
70445;BME280;57902;49.638;11.070;2022-08-21T04:58:15;98373.84;;;15.22;100.00
70445;BME280;57902;49.638;11.070;2022-08-21T05:00:44;98376.44;;;15.22;100.00
70445;BME280;57902;49.638;11.070;2022-08-21T05:03:13;98370.44;;;15.20;100.00
70445;BME280;57902;49.638;11.070;2022-08-21T05:05:41;98380.97;;;15.17;100.00
70445;BME280;57902;49.638;11.070;2022-08-21T05:08:09;98378.53;;;15.14;100.00
70445;BME280;57902;49.638;11.070;2022-08-21T05:10:38;98384.78;;;15.10;100.00
70445;BME280;57902;49.638;11.070;2022-08-21T05:13:06;98382.97;;;15.12;100.00
70445;BME280;57902;49.638;11.070;2022-08-21T05:15:33;98381.13;;;15.14;100.00
70445;BME280;57902;49.638;11.070;2022-08-21T05:17:59;98387.00;;;15.18;100.00
70445;BME280;57902;49.638;11.070;2022-08-21T05:20:27;98384.97;;;15.25;100.00
70445;BME280;57902;49.638;11.070;2022-08-21T05:22:56;98384.16;;;15.24;100.00
70445;BME280;57902;49.638;11.070;2022-08-21T05:25:24;98386.84;;;15.21;100.00
70445;BME280;57902;49.638;11.070;2022-08-21T05:27:53;98386.75;;;15.24;100.00
70445;BME280;57902;49.638;11.070;2022-08-21T05:30:20;98382.91;;;15.31;100.00
70445;BME280;57902;49.638;11.070;2022-08-21T05:32:46;98393.19;;;15.34;100.00
70445;BME280;57902;49.638;11.070;2022-08-21T05:35:14;98389.66;;;15.35;100.00
70445;BME280;57902;49.638;11.070;2022-08-21T05:37:41;98389.31;;;15.43;100.00
70445;BME280;57902;49.638;11.070;2022-08-21T05:40:08;98387.09;;;15.53;100.00
70445;BME280;57902;49.638;11.070;2022-08-21T05:42:49;98390.31;;;15.58;100.00
70445;BME280;57902;49.638;11.070;2022-08-21T05:45:26;98394.75;;;15.56;100.00
70445;BME280;57902;49.638;11.070;2022-08-21T05:48:20;98394.22;;;15.49;100.00
70445;BME280;57902;49.638;11.070;2022-08-21T05:50:48;98396.81;;;15.49;100.00
70445;BME280;57902;49.638;11.070;2022-08-21T05:53:15;98402.16;;;15.46;100.00
70445;BME280;57902;49.638;11.070;2022-08-21T05:55:44;98400.22;;;15.50;100.00
70445;BME280;57902;49.638;11.070;2022-08-21T05:58:19;98403.41;;;15.56;100.00
70445;BME280;57902;49.638;11.070;2022-08-21T06:00:47;98408.28;;;15.63;100.00
70445;BME280;57902;49.638;11.070;2022-08-21T06:03:18;98410.81;;;15.64;100.00
70445;BME280;57902;49.638;11.070;2022-08-21T06:05:45;98407.97;;;15.69;100.00
70445;BME280;57902;49.638;11.070;2022-08-21T06:08:13;98395.47;;;15.77;100.00
70445;BME280;57902;49.638;11.070;2022-08-21T06:10:40;98397.44;;;15.72;100.00
70445;BME280;57902;49.638;11.070;2022-08-21T06:13:06;98404.31;;;15.73;100.00
70445;BME280;57902;49.638;11.070;2022-08-21T06:15:33;98408.53;;;15.75;100.00
70445;BME280;57902;49.638;11.070;2022-08-21T06:18:00;98401.44;;;15.79;100.00
70445;BME280;57902;49.638;11.070;2022-08-21T06:20:28;98400.25;;;15.86;100.00
70445;BME280;57902;49.638;11.070;2022-08-21T06:22:55;98406.97;;;15.90;100.00
70445;BME280;57902;49.638;11.070;2022-08-21T06:25:21;98409.56;;;15.90;100.00
70445;BME280;57902;49.638;11.070;2022-08-21T06:27:48;98405.22;;;15.91;100.00
70445;BME280;57902;49.638;11.070;2022-08-21T06:30:15;98412.63;;;15.99;100.00
70445;BME280;57902;49.638;11.070;2022-08-21T06:32:41;98413.75;;;16.10;100.00
70445;BME280;57902;49.638;11.070;2022-08-21T06:35:08;98415.13;;;16.18;100.00
70445;BME280;57902;49.638;11.070;2022-08-21T06:37:35;98419.81;;;16.11;100.00
70445;BME280;57902;49.638;11.070;2022-08-21T06:40:03;98419.97;;;16.08;100.00
70445;BME280;57902;49.638;11.070;2022-08-21T06:42:30;98421.50;;;16.12;100.00
70445;BME280;57902;49.638;11.070;2022-08-21T06:44:57;98416.75;;;16.20;100.00
70445;BME280;57902;49.638;11.070;2022-08-21T06:47:24;98414.06;;;16.39;100.00
70445;BME280;57902;49.638;11.070;2022-08-21T06:49:51;98421.38;;;16.49;100.00
70445;BME280;57902;49.638;11.070;2022-08-21T06:52:18;98421.25;;;16.52;100.00
70445;BME280;57902;49.638;11.070;2022-08-21T06:54:45;98417.78;;;16.51;100.00
70445;BME280;57902;49.638;11.070;2022-08-21T06:57:11;98419.91;;;16.60;99.79
70445;BME280;57902;49.638;11.070;2022-08-21T06:59:38;98414.34;;;16.51;99.11
70445;BME280;57902;49.638;11.070;2022-08-21T07:02:05;98417.47;;;16.57;99.27
70445;BME280;57902;49.638;11.070;2022-08-21T07:04:31;98412.19;;;16.59;100.00
70445;BME280;57902;49.638;11.070;2022-08-21T07:06:58;98425.72;;;16.66;100.00
70445;BME280;57902;49.638;11.070;2022-08-21T07:09:25;98417.41;;;16.75;98.96
70445;BME280;57902;49.638;11.070;2022-08-21T07:11:53;98414.56;;;16.79;99.27
70445;BME280;57902;49.638;11.070;2022-08-21T07:14:21;98407.06;;;16.91;99.93
70445;BME280;57902;49.638;11.070;2022-08-21T07:16:48;98417.66;;;17.04;98.85
70445;BME280;57902;49.638;11.070;2022-08-21T07:19:15;98417.09;;;17.14;98.46
70445;BME280;57902;49.638;11.070;2022-08-21T07:21:42;98413.75;;;17.28;96.65
70445;BME280;57902;49.638;11.070;2022-08-21T07:24:09;98416.84;;;17.35;97.73
70445;BME280;57902;49.638;11.070;2022-08-21T07:26:35;98419.19;;;17.40;96.14
70445;BME280;57902;49.638;11.070;2022-08-21T07:29:03;98417.09;;;17.46;95.97
70445;BME280;57902;49.638;11.070;2022-08-21T07:31:30;98420.50;;;17.63;94.75
70445;BME280;57902;49.638;11.070;2022-08-21T07:33:57;98421.09;;;17.68;94.65
70445;BME280;57902;49.638;11.070;2022-08-21T07:36:24;98419.59;;;17.64;93.83
70445;BME280;57902;49.638;11.070;2022-08-21T07:38:50;98419.41;;;17.67;92.99
70445;BME280;57902;49.638;11.070;2022-08-21T07:41:20;98416.88;;;17.65;95.29
70445;BME280;57902;49.638;11.070;2022-08-21T07:43:48;98418.31;;;17.71;94.80
70445;BME280;57902;49.638;11.070;2022-08-21T07:46:18;98418.41;;;17.70;94.35
70445;BME280;57902;49.638;11.070;2022-08-21T07:48:45;98428.47;;;17.76;93.58
70445;BME280;57902;49.638;11.070;2022-08-21T07:51:14;98425.78;;;17.77;92.69
70445;BME280;57902;49.638;11.070;2022-08-21T07:53:47;98425.53;;;17.82;92.75
70445;BME280;57902;49.638;11.070;2022-08-21T07:56:14;98423.63;;;17.70;93.04
70445;BME280;57902;49.638;11.070;2022-08-21T07:58:41;98415.81;;;17.70;93.35
70445;BME280;57902;49.638;11.070;2022-08-21T08:01:07;98411.53;;;17.53;95.56
70445;BME280;57902;49.638;11.070;2022-08-21T08:03:34;98411.25;;;17.57;94.09
70445;BME280;57902;49.638;11.070;2022-08-21T08:06:00;98415.72;;;17.55;93.55
70445;BME280;57902;49.638;11.070;2022-08-21T08:08:27;98413.72;;;17.60;93.60
70445;BME280;57902;49.638;11.070;2022-08-21T08:10:53;98419.06;;;17.57;94.70
70445;BME280;57902;49.638;11.070;2022-08-21T08:13:22;98414.63;;;17.59;95.00
70445;BME280;57902;49.638;11.070;2022-08-21T08:15:49;98419.94;;;17.58;93.63
70445;BME280;57902;49.638;11.070;2022-08-21T08:18:16;98417.75;;;17.50;94.86
70445;BME280;57902;49.638;11.070;2022-08-21T08:20:42;98415.88;;;17.68;93.53
70445;BME280;57902;49.638;11.070;2022-08-21T08:23:13;98412.69;;;17.63;94.15
70445;BME280;57902;49.638;11.070;2022-08-21T08:25:40;98417.06;;;17.62;95.21
70445;BME280;57902;49.638;11.070;2022-08-21T08:28:06;98413.19;;;17.70;95.13
70445;BME280;57902;49.638;11.070;2022-08-21T08:30:46;98407.88;;;17.71;93.55
70445;BME280;57902;49.638;11.070;2022-08-21T08:33:14;98410.81;;;17.81;94.84
70445;BME280;57902;49.638;11.070;2022-08-21T08:35:41;98405.09;;;17.90;93.28
70445;BME280;57902;49.638;11.070;2022-08-21T08:38:08;98405.56;;;17.97;92.71
70445;BME280;57902;49.638;11.070;2022-08-21T08:40:44;98400.22;;;18.14;91.69
70445;BME280;57902;49.638;11.070;2022-08-21T08:43:12;98402.03;;;18.28;90.37
70445;BME280;57902;49.638;11.070;2022-08-21T08:45:40;98401.28;;;18.41;89.95
70445;BME280;57902;49.638;11.070;2022-08-21T08:48:13;98410.31;;;18.35;89.66
70445;BME280;57902;49.638;11.070;2022-08-21T08:50:48;98409.19;;;18.39;89.96
70445;BME280;57902;49.638;11.070;2022-08-21T08:53:19;98408.81;;;18.45;89.86
70445;BME280;57902;49.638;11.070;2022-08-21T08:55:51;98408.72;;;18.47;88.79
70445;BME280;57902;49.638;11.070;2022-08-21T08:58:23;98402.03;;;18.43;88.15
70445;BME280;57902;49.638;11.070;2022-08-21T09:00:52;98412.28;;;18.46;89.09
70445;BME280;57902;49.638;11.070;2022-08-21T09:03:21;98408.84;;;18.31;87.56
70445;BME280;57902;49.638;11.070;2022-08-21T09:05:55;98414.88;;;18.31;88.22
70445;BME280;57902;49.638;11.070;2022-08-21T09:08:45;98407.50;;;18.38;88.85
70445;BME280;57902;49.638;11.070;2022-08-21T09:11:26;98404.19;;;18.50;88.45
70445;BME280;57902;49.638;11.070;2022-08-21T09:14:04;98399.78;;;18.51;89.68
70445;BME280;57902;49.638;11.070;2022-08-21T09:17:30;98402.59;;;18.62;88.95
70445;BME280;57902;49.638;11.070;2022-08-21T09:19:52;98403.25;;;18.80;86.40
70445;BME280;57902;49.638;11.070;2022-08-21T09:22:31;98405.94;;;18.79;86.63
70445;BME280;57902;49.638;11.070;2022-08-21T09:27:26;98405.00;;;19.09;86.46
70445;BME280;57902;49.638;11.070;2022-08-21T09:29:53;98401.25;;;19.13;85.66
70445;BME280;57902;49.638;11.070;2022-08-21T09:32:27;98404.06;;;19.24;83.92
70445;BME280;57902;49.638;11.070;2022-08-21T09:35:17;98400.84;;;19.33;84.64
70445;BME280;57902;49.638;11.070;2022-08-21T09:40:32;98402.81;;;19.57;83.46
70445;BME280;57902;49.638;11.070;2022-08-21T09:43:03;98405.06;;;19.63;82.18
70445;BME280;57902;49.638;11.070;2022-08-21T09:45:31;98398.53;;;19.56;82.33
70445;BME280;57902;49.638;11.070;2022-08-21T09:50:40;98402.09;;;19.55;83.31
70445;BME280;57902;49.638;11.070;2022-08-21T09:53:38;98402.91;;;19.55;82.34
70445;BME280;57902;49.638;11.070;2022-08-21T09:56:05;98403.78;;;19.69;82.01
70445;BME280;57902;49.638;11.070;2022-08-21T09:59:00;98389.66;;;19.86;82.88
70445;BME280;57902;49.638;11.070;2022-08-21T10:01:27;98385.50;;;19.96;80.93
70445;BME280;57902;49.638;11.070;2022-08-21T10:04:04;98388.34;;;20.06;82.36
70445;BME280;57902;49.638;11.070;2022-08-21T10:06:33;98387.81;;;20.14;80.10
70445;BME280;57902;49.638;11.070;2022-08-21T10:09:16;98392.00;;;20.16;80.34
70445;BME280;57902;49.638;11.070;2022-08-21T10:12:09;98386.59;;;20.32;79.57
70445;BME280;57902;49.638;11.070;2022-08-21T10:20:12;98377.25;;;20.67;78.82
70445;BME280;57902;49.638;11.070;2022-08-21T10:23:00;98382.59;;;20.78;76.97
70445;BME280;57902;49.638;11.070;2022-08-21T10:25:44;98381.81;;;20.89;76.88
70445;BME280;57902;49.638;11.070;2022-08-21T10:29:15;98386.94;;;21.03;76.66
70445;BME280;57902;49.638;11.070;2022-08-21T10:32:03;98386.88;;;21.29;74.96
70445;BME280;57902;49.638;11.070;2022-08-21T10:34:54;98383.69;;;21.61;73.65
70445;BME280;57902;49.638;11.070;2022-08-21T10:45:36;98383.59;;;22.79;69.14
70445;BME280;57902;49.638;11.070;2022-08-21T10:48:06;98377.50;;;23.01;68.66
70445;BME280;57902;49.638;11.070;2022-08-21T10:50:55;98376.53;;;23.13;68.21
70445;BME280;57902;49.638;11.070;2022-08-21T10:56:01;98370.31;;;22.92;69.23
70445;BME280;57902;49.638;11.070;2022-08-21T10:59:18;98368.41;;;22.82;68.39
70445;BME280;57902;49.638;11.070;2022-08-21T11:01:28;98365.41;;;22.98;67.45
70445;BME280;57902;49.638;11.070;2022-08-21T11:06:45;98354.28;;;23.06;67.97
70445;BME280;57902;49.638;11.070;2022-08-21T11:09:19;98359.31;;;23.20;67.25
70445;BME280;57902;49.638;11.070;2022-08-21T11:11:58;98352.13;;;23.22;67.47
70445;BME280;57902;49.638;11.070;2022-08-21T11:14:51;98351.06;;;23.46;65.20
70445;BME280;57902;49.638;11.070;2022-08-21T11:17:30;98344.16;;;23.45;65.72
70445;BME280;57902;49.638;11.070;2022-08-21T11:20:05;98343.41;;;23.54;66.78
70445;BME280;57902;49.638;11.070;2022-08-21T11:22:46;98345.53;;;23.61;66.09
70445;BME280;57902;49.638;11.070;2022-08-21T11:25:26;98337.19;;;23.76;65.31
70445;BME280;57902;49.638;11.070;2022-08-21T11:28:14;98342.31;;;23.78;64.11
70445;BME280;57902;49.638;11.070;2022-08-21T11:31:05;98337.25;;;23.65;65.06
70445;BME280;57902;49.638;11.070;2022-08-21T11:36:51;98331.28;;;23.84;61.46
70445;BME280;57902;49.638;11.070;2022-08-21T11:39:34;98329.13;;;24.10;59.12
70445;BME280;57902;49.638;11.070;2022-08-21T11:42:22;98330.09;;;23.88;60.73
70445;BME280;57902;49.638;11.070;2022-08-21T11:45:17;98324.56;;;24.13;59.09
70445;BME280;57902;49.638;11.070;2022-08-21T11:48:25;98325.00;;;24.18;55.84
70445;BME280;57902;49.638;11.070;2022-08-21T11:50:57;98313.94;;;24.24;56.80
70445;BME280;57902;49.638;11.070;2022-08-21T11:53:33;98317.94;;;24.49;55.17
70445;BME280;57902;49.638;11.070;2022-08-21T11:58:41;98309.53;;;24.24;55.56
70445;BME280;57902;49.638;11.070;2022-08-21T12:01:21;98309.00;;;24.31;56.97
70445;BME280;57902;49.638;11.070;2022-08-21T12:03:56;98304.69;;;24.29;56.24
70445;BME280;57902;49.638;11.070;2022-08-21T12:06:30;98302.63;;;24.33;55.67
70445;BME280;57902;49.638;11.070;2022-08-21T12:09:04;98300.81;;;24.34;56.75
70445;BME280;57902;49.638;11.070;2022-08-21T12:11:47;98297.75;;;24.28;54.33
70445;BME280;57902;49.638;11.070;2022-08-21T12:14:17;98291.06;;;24.55;52.81
70445;BME280;57902;49.638;11.070;2022-08-21T12:16:46;98287.38;;;24.68;52.93
70445;BME280;57902;49.638;11.070;2022-08-21T12:19:28;98287.84;;;24.52;52.74
70445;BME280;57902;49.638;11.070;2022-08-21T12:24:44;98284.94;;;24.55;52.04
70445;BME280;57902;49.638;11.070;2022-08-21T12:27:27;98281.41;;;24.66;52.26
70445;BME280;57902;49.638;11.070;2022-08-21T12:29:59;98280.78;;;24.52;50.53
70445;BME280;57902;49.638;11.070;2022-08-21T12:32:41;98274.47;;;24.65;49.82
70445;BME280;57902;49.638;11.070;2022-08-21T12:35:18;98278.66;;;24.77;49.89
70445;BME280;57902;49.638;11.070;2022-08-21T12:38:02;98276.53;;;24.71;49.23
70445;BME280;57902;49.638;11.070;2022-08-21T12:40:47;98276.84;;;24.77;50.22
70445;BME280;57902;49.638;11.070;2022-08-21T12:43:29;98277.84;;;24.96;49.68
70445;BME280;57902;49.638;11.070;2022-08-21T12:45:57;98277.84;;;25.06;46.02
70445;BME280;57902;49.638;11.070;2022-08-21T12:48:31;98271.47;;;25.28;43.13
70445;BME280;57902;49.638;11.070;2022-08-21T12:51:12;98276.50;;;25.41;43.95
70445;BME280;57902;49.638;11.070;2022-08-21T12:56:18;98271.94;;;25.33;46.20
70445;BME280;57902;49.638;11.070;2022-08-21T12:58:51;98272.06;;;25.31;43.69
70445;BME280;57902;49.638;11.070;2022-08-21T13:01:27;98256.91;;;25.14;44.94
70445;BME280;57902;49.638;11.070;2022-08-21T13:03:58;98262.59;;;25.09;45.93
70445;BME280;57902;49.638;11.070;2022-08-21T13:06:37;98260.09;;;25.08;46.43
70445;BME280;57902;49.638;11.070;2022-08-21T13:09:07;98258.56;;;25.15;44.69
70445;BME280;57902;49.638;11.070;2022-08-21T13:11:35;98249.53;;;25.18;45.81
70445;BME280;57902;49.638;11.070;2022-08-21T13:14:14;98249.69;;;25.06;47.88
70445;BME280;57902;49.638;11.070;2022-08-21T13:16:45;98250.22;;;25.00;47.79
70445;BME280;57902;49.638;11.070;2022-08-21T13:19:16;98248.84;;;25.15;48.36
70445;BME280;57902;49.638;11.070;2022-08-21T13:21:50;98251.34;;;25.07;47.04
70445;BME280;57902;49.638;11.070;2022-08-21T13:24:27;98249.25;;;25.01;48.03
70445;BME280;57902;49.638;11.070;2022-08-21T13:27:24;98239.69;;;25.10;48.00
70445;BME280;57902;49.638;11.070;2022-08-21T13:30:21;98241.22;;;24.83;47.96
70445;BME280;57902;49.638;11.070;2022-08-21T13:32:52;98236.75;;;24.84;48.89
70445;BME280;57902;49.638;11.070;2022-08-21T13:35:26;98238.84;;;24.90;48.68
70445;BME280;57902;49.638;11.070;2022-08-21T13:37:55;98230.66;;;25.03;47.79
70445;BME280;57902;49.638;11.070;2022-08-21T13:40:29;98231.78;;;25.10;48.10
70445;BME280;57902;49.638;11.070;2022-08-21T13:42:56;98228.19;;;25.30;45.24
70445;BME280;57902;49.638;11.070;2022-08-21T13:45:30;98228.31;;;25.39;44.47
70445;BME280;57902;49.638;11.070;2022-08-21T13:47:59;98224.97;;;25.37;45.50
70445;BME280;57902;49.638;11.070;2022-08-21T13:50:33;98228.88;;;25.32;44.62